x

Apk - Aripeka, Fl (arpf1) Weather Station

1:54pm - Sat 18th Aug 2018 All times are EDT. -4 hours from GMT.

  • Wind
    8mph, 9mph gusts
  • Air Temp 88°f
  • Sea Pressure 1019.6mb
  • Apk - Aripeka, Fl
  • Apk - Aripeka, Fl

More Historic Weather Station data

Upgrade to MSW Pro to gain access to the past 30 days of data for over 8000 Wavebouys and Weather Stations around the globe.

Join

Comparision Forecast

View Surf forecast
   
Sat 08/18 1:54pm 8 9 mph 1019.6mb 88f
1:48pm 8 10 mph 1019.6mb 88f
12:54pm 8 9 mph 1020.2mb 88f
12:48pm 8 9 mph 1020.3mb 87f
11:54am 7 8 mph 1020.6mb 87f
11:48am 7 8 mph 1020.6mb 86f
10:54am 5 5 mph 1021mb 87f
10:48am 5 6 mph 1021.1mb 86f
9:54am 1 2 mph 1021mb 85f
9:48am 2 3 mph 1020.9mb 85f
8:54am 2 5 mph 1021mb 82f
8:48am 2 3 mph 1020.9mb 81f
6:54am 3 5 mph 1020.1mb 78f
6:48am 2 3 mph 1020.1mb 78f
5:54am 5 6 mph 1019.9mb 78f
5:48am 5 6 mph 1019.9mb 78f
4:54am 2 3 mph 1020.1mb 79f
4:48am 2 5 mph 1020.2mb 79f
3:54am 2 2 mph 1020.4mb 79f
3:48am 1 2 mph 1020.4mb 79f
2:54am  -  1 mph 1020.7mb 80f
2:48am 1 2 mph 1020.8mb 79f
1:54am 1 2 mph 1021.3mb 81f
1:48am 1 2 mph 1021.3mb 80f
12:54am  -  3 mph 1022.1mb 82f
12:48am 2 6 mph 1022.1mb 81f
Fri 08/17 11:54pm 2 5 mph 1022mb 82f
11:48pm 2 3 mph 1022mb 82f
10:54pm 3 6 mph 1021.6mb 83f
10:48pm 2 3 mph 1021.6mb 84f
9:54pm 2 6 mph 1021.2mb 86f
9:48pm 2 3 mph 1021.1mb 86f
8:54pm 2 3 mph 1020.3mb 86f
8:48pm 1 3 mph 1020.4mb 86f
7:54pm 2 5 mph 1020.4mb 87f
7:48pm 2 3 mph 1020.5mb 87f
6:54pm 3 6 mph 1020.3mb 87f
6:48pm 6 8 mph 1020.3mb 87f
5:54pm 7 9 mph 1020.5mb 87f
5:48pm 7 9 mph 1020.6mb 87f
4:54pm 6 8 mph 1020.4mb 87f
4:48pm 6 8 mph 1020.5mb 87f
3:54pm  -  2 mph 1020.7mb 87f
3:48pm 3 8 mph 1020.7mb 87f
2:54pm 10 13 mph 1020.9mb 89f
2:48pm 9 13 mph 1021.1mb 89f
1:54pm 8 9 mph 1021.9mb 88f
1:48pm 8 10 mph 1021.9mb 88f
12:54pm 7 9 mph 1022.2mb 87f
12:48pm 7 9 mph 1022.2mb 87f
9:54am 3 7 mph 1022.5mb 85f
9:48am 3 6 mph 1022.5mb 85f
8:54am 3 7 mph 1022.6mb 82f
8:48am 3 9 mph 1022.5mb 81f
7:54am 5 6 mph 1021.9mb 77f
7:48am 3 6 mph 1021.8mb 77f
6:54am 5 7 mph 1021.3mb 76f
6:48am 3 6 mph 1021.4mb 76f
5:54am 3 6 mph 1021.1mb 76f
5:48am 3 6 mph 1021.2mb 75f
4:54am 1 2 mph 1021.1mb 76f
4:48am 1 2 mph 1021.2mb 76f
3:54am 3 7 mph 1021.1mb 76f
3:48am 3 6 mph 1021.2mb 76f
2:54am 6 7 mph 1021.5mb 76f
2:48am 5 7 mph 1021.5mb 76f
1:54am 5 8 mph 1022.1mb 76f
1:48am 2 7 mph 1022.1mb 76f
12:54am 2 3 mph 1022.8mb 76f
12:48am 1 5 mph 1022.7mb 75f
Thu 08/16 10:54pm 7 14 mph 1022.6mb 78f
10:48pm 7 13 mph 1022.5mb 78f
9:54pm 3 5 mph 1022mb 81f
9:48pm 5 6 mph 1022.2mb 81f
8:54pm 2 3 mph 1021.9mb 86f
8:48pm 2 3 mph 1021.9mb 87f
7:54pm 5 7 mph 1020.8mb 87f
7:48pm 2 8 mph 1020.8mb 87f
6:54pm 6 7 mph 1020.1mb 88f
6:48pm 7 8 mph 1020.1mb 87f
5:54pm 6 8 mph 1020.5mb 88f
5:48pm 6 8 mph 1020.5mb 88f
4:54pm 7 9 mph 1020.3mb 88f
4:48pm 7 8 mph 1020.3mb 87f
3:54pm 10 13 mph 1020.5mb 88f
3:48pm 10 13 mph 1020.6mb 88f
1:54pm 8 10 mph 1021.1mb 88f
1:48pm 8 10 mph 1021.1mb 88f
12:54pm 2 7 mph 1021.4mb 92f
12:48pm 2 6 mph 1021.4mb 91f
11:54am 2 8 mph 1021.8mb 91f
11:48am 3 6 mph 1021.8mb 90f
10:54am 5 9 mph 1021.4mb 88f
10:48am 2 7 mph 1021.5mb 88f
9:54am 5 8 mph 1021.3mb 85f
9:48am 3 9 mph 1021.2mb 84f
8:54am 3 6 mph 1021.1mb 80f
8:48am 3 7 mph 1021.1mb 79f
6:54am 3 7 mph 1019.9mb 76f
6:48am 5 6 mph 1019.8mb 76f
5:54am 5 6 mph 1019.4mb 76f
5:48am 3 6 mph 1019.4mb 76f
4:54am 3 6 mph 1019.2mb 76f
4:48am 5 6 mph 1019.1mb 76f
3:54am 3 7 mph 1019mb 77f
3:48am 3 6 mph 1019.1mb 77f
2:54am 5 8 mph 1019.5mb 78f
2:48am 5 7 mph 1019.7mb 78f
1:54am 6 7 mph 1020.3mb 78f
1:48am 6 9 mph 1020.3mb 78f
12:54am 5 8 mph 1020.5mb 78f
12:48am 5 7 mph 1020.5mb 78f
Wed 08/15 11:54pm 3 5 mph 1020.5mb 78f
11:48pm 3 5 mph 1020.5mb 78f
10:54pm 3 5 mph 1019.7mb 78f
10:48pm 3 5 mph 1019.8mb 78f
9:54pm 2 5 mph 1019.3mb 79f
9:48pm 3 5 mph 1019.2mb 79f
8:54pm 3 5 mph 1019.3mb 80f
8:48pm 3 5 mph 1019.3mb 80f
7:54pm 5 8 mph 1019.4mb 83f
7:48pm 5 7 mph 1019.3mb 83f